sensor_id;sensor_type;location;lat;lon;timestamp;temperature;humidity
10171;DHT22;5127;50.922;6.988;2023-02-24T00:01:11;11.30;71.90
10171;DHT22;5127;50.922;6.988;2023-02-24T00:03:43;11.40;71.60
10171;DHT22;5127;50.922;6.988;2023-02-24T00:06:11;11.40;72.00
10171;DHT22;5127;50.922;6.988;2023-02-24T00:08:38;11.40;72.00
10171;DHT22;5127;50.922;6.988;2023-02-24T00:11:08;11.40;72.00
10171;DHT22;5127;50.922;6.988;2023-02-24T00:13:36;11.40;71.80
10171;DHT22;5127;50.922;6.988;2023-02-24T00:16:04;11.40;71.80
10171;DHT22;5127;50.922;6.988;2023-02-24T00:18:33;11.30;71.70
10171;DHT22;5127;50.922;6.988;2023-02-24T00:21:05;11.30;71.60
10171;DHT22;5127;50.922;6.988;2023-02-24T00:23:33;11.30;71.40
10171;DHT22;5127;50.922;6.988;2023-02-24T00:26:03;11.20;71.50
10171;DHT22;5127;50.922;6.988;2023-02-24T00:28:31;11.20;71.40
10171;DHT22;5127;50.922;6.988;2023-02-24T00:31:02;11.20;71.50
10171;DHT22;5127;50.922;6.988;2023-02-24T00:33:33;11.10;71.20
10171;DHT22;5127;50.922;6.988;2023-02-24T00:36:05;11.10;71.40
10171;DHT22;5127;50.922;6.988;2023-02-24T00:38:33;11.10;71.10
10171;DHT22;5127;50.922;6.988;2023-02-24T00:41:08;11.00;71.20
10171;DHT22;5127;50.922;6.988;2023-02-24T00:43:37;11.00;70.80
10171;DHT22;5127;50.922;6.988;2023-02-24T00:46:04;11.00;71.10
10171;DHT22;5127;50.922;6.988;2023-02-24T00:48:39;11.00;70.90
10171;DHT22;5127;50.922;6.988;2023-02-24T00:51:09;10.90;70.50
10171;DHT22;5127;50.922;6.988;2023-02-24T00:53:37;10.80;70.50
10171;DHT22;5127;50.922;6.988;2023-02-24T00:56:05;10.80;70.70
10171;DHT22;5127;50.922;6.988;2023-02-24T00:58:37;10.70;70.50
10171;DHT22;5127;50.922;6.988;2023-02-24T01:01:11;10.70;70.60
10171;DHT22;5127;50.922;6.988;2023-02-24T01:03:41;10.70;70.30
10171;DHT22;5127;50.922;6.988;2023-02-24T01:06:09;10.60;70.30
10171;DHT22;5127;50.922;6.988;2023-02-24T01:08:37;10.50;70.30
10171;DHT22;5127;50.922;6.988;2023-02-24T01:11:13;10.50;70.40
10171;DHT22;5127;50.922;6.988;2023-02-24T01:13:58;10.50;70.50
10171;DHT22;5127;50.922;6.988;2023-02-24T01:16:26;10.50;70.60
10171;DHT22;5127;50.922;6.988;2023-02-24T01:18:54;10.40;70.40
10171;DHT22;5127;50.922;6.988;2023-02-24T01:21:22;10.40;70.40
10171;DHT22;5127;50.922;6.988;2023-02-24T01:23:51;10.40;70.50
10171;DHT22;5127;50.922;6.988;2023-02-24T01:26:19;10.40;70.40
10171;DHT22;5127;50.922;6.988;2023-02-24T01:28:46;10.40;70.30
10171;DHT22;5127;50.922;6.988;2023-02-24T01:31:15;10.30;70.20
10171;DHT22;5127;50.922;6.988;2023-02-24T01:33:43;10.30;70.10
10171;DHT22;5127;50.922;6.988;2023-02-24T01:36:14;10.30;70.10
10171;DHT22;5127;50.922;6.988;2023-02-24T01:38:42;10.30;69.90
10171;DHT22;5127;50.922;6.988;2023-02-24T01:41:11;10.20;70.10
10171;DHT22;5127;50.922;6.988;2023-02-24T01:43:57;10.20;70.00
10171;DHT22;5127;50.922;6.988;2023-02-24T01:46:26;10.20;69.80
10171;DHT22;5127;50.922;6.988;2023-02-24T01:48:56;10.20;70.00
10171;DHT22;5127;50.922;6.988;2023-02-24T01:51:28;10.10;69.90
10171;DHT22;5127;50.922;6.988;2023-02-24T01:53:57;10.10;69.80
10171;DHT22;5127;50.922;6.988;2023-02-24T01:56:25;10.10;70.00
10171;DHT22;5127;50.922;6.988;2023-02-24T01:58:55;10.10;70.00
10171;DHT22;5127;50.922;6.988;2023-02-24T02:01:22;10.10;70.00
10171;DHT22;5127;50.922;6.988;2023-02-24T02:03:53;10.10;70.00
10171;DHT22;5127;50.922;6.988;2023-02-24T02:06:23;10.00;69.80
10171;DHT22;5127;50.922;6.988;2023-02-24T02:08:53;10.10;70.20
10171;DHT22;5127;50.922;6.988;2023-02-24T02:11:20;10.00;70.00
10171;DHT22;5127;50.922;6.988;2023-02-24T02:13:49;10.00;70.10
10171;DHT22;5127;50.922;6.988;2023-02-24T02:16:44;10.00;70.00
10171;DHT22;5127;50.922;6.988;2023-02-24T02:19:45;10.00;69.20
10171;DHT22;5127;50.922;6.988;2023-02-24T02:22:40;10.00;69.90
10171;DHT22;5127;50.922;6.988;2023-02-24T02:25:19;10.10;69.40
10171;DHT22;5127;50.922;6.988;2023-02-24T02:28:13;10.10;69.90
10171;DHT22;5127;50.922;6.988;2023-02-24T02:31:05;10.10;69.30
10171;DHT22;5127;50.922;6.988;2023-02-24T02:34:12;10.10;69.20
10171;DHT22;5127;50.922;6.988;2023-02-24T02:36:51;10.00;69.10
10171;DHT22;5127;50.922;6.988;2023-02-24T02:39:28;10.00;69.30
10171;DHT22;5127;50.922;6.988;2023-02-24T02:42:07;10.00;69.30
10171;DHT22;5127;50.922;6.988;2023-02-24T02:44:48;10.00;69.30
10171;DHT22;5127;50.922;6.988;2023-02-24T02:47:25;9.90;70.20
10171;DHT22;5127;50.922;6.988;2023-02-24T02:49:58;9.90;70.40
10171;DHT22;5127;50.922;6.988;2023-02-24T02:52:32;9.90;70.50
10171;DHT22;5127;50.922;6.988;2023-02-24T02:55:24;9.90;70.60
10171;DHT22;5127;50.922;6.988;2023-02-24T02:57:53;9.80;70.60
10171;DHT22;5127;50.922;6.988;2023-02-24T03:00:25;9.80;70.80
10171;DHT22;5127;50.922;6.988;2023-02-24T03:02:58;9.80;70.50
10171;DHT22;5127;50.922;6.988;2023-02-24T03:05:33;9.80;70.40
10171;DHT22;5127;50.922;6.988;2023-02-24T03:08:05;9.80;70.30
10171;DHT22;5127;50.922;6.988;2023-02-24T03:10:37;9.80;70.40
10171;DHT22;5127;50.922;6.988;2023-02-24T03:13:08;9.70;70.50
10171;DHT22;5127;50.922;6.988;2023-02-24T03:15:36;9.70;70.30
10171;DHT22;5127;50.922;6.988;2023-02-24T03:18:11;9.70;70.50
10171;DHT22;5127;50.922;6.988;2023-02-24T03:20:43;9.70;70.30
10171;DHT22;5127;50.922;6.988;2023-02-24T03:23:17;9.70;70.30
10171;DHT22;5127;50.922;6.988;2023-02-24T03:25:50;9.60;70.20
10171;DHT22;5127;50.922;6.988;2023-02-24T03:28:23;9.60;70.00
10171;DHT22;5127;50.922;6.988;2023-02-24T03:30:58;9.60;70.20
10171;DHT22;5127;50.922;6.988;2023-02-24T03:33:33;9.60;70.10
10171;DHT22;5127;50.922;6.988;2023-02-24T03:36:03;9.50;70.00
10171;DHT22;5127;50.922;6.988;2023-02-24T03:38:33;9.50;70.20
10171;DHT22;5127;50.922;6.988;2023-02-24T03:41:04;9.50;70.30
10171;DHT22;5127;50.922;6.988;2023-02-24T03:43:38;9.50;70.40
10171;DHT22;5127;50.922;6.988;2023-02-24T03:46:07;9.50;70.30
10171;DHT22;5127;50.922;6.988;2023-02-24T03:48:39;9.50;70.50
10171;DHT22;5127;50.922;6.988;2023-02-24T03:51:13;9.50;70.10
10171;DHT22;5127;50.922;6.988;2023-02-24T03:53:55;9.50;69.90
10171;DHT22;5127;50.922;6.988;2023-02-24T03:56:31;9.50;69.50
10171;DHT22;5127;50.922;6.988;2023-02-24T03:59:13;9.50;69.80
10171;DHT22;5127;50.922;6.988;2023-02-24T04:01:49;9.50;69.50
10171;DHT22;5127;50.922;6.988;2023-02-24T04:04:28;9.50;69.80
10171;DHT22;5127;50.922;6.988;2023-02-24T04:07:12;9.50;69.80
10171;DHT22;5127;50.922;6.988;2023-02-24T04:09:42;9.40;69.40
10171;DHT22;5127;50.922;6.988;2023-02-24T04:12:17;9.40;69.60
10171;DHT22;5127;50.922;6.988;2023-02-24T04:14:54;9.40;69.60
10171;DHT22;5127;50.922;6.988;2023-02-24T04:17:27;9.40;69.40
10171;DHT22;5127;50.922;6.988;2023-02-24T04:20:01;9.30;69.40
10171;DHT22;5127;50.922;6.988;2023-02-24T04:22:36;9.30;69.40
10171;DHT22;5127;50.922;6.988;2023-02-24T04:25:04;9.30;69.50
10171;DHT22;5127;50.922;6.988;2023-02-24T04:27:40;9.30;69.60
10171;DHT22;5127;50.922;6.988;2023-02-24T04:30:14;9.30;69.50
10171;DHT22;5127;50.922;6.988;2023-02-24T04:32:41;9.30;69.80
10171;DHT22;5127;50.922;6.988;2023-02-24T04:35:12;9.20;69.60
10171;DHT22;5127;50.922;6.988;2023-02-24T04:37:44;9.30;69.40
10171;DHT22;5127;50.922;6.988;2023-02-24T04:40:13;9.20;69.40
10171;DHT22;5127;50.922;6.988;2023-02-24T04:42:43;9.20;69.50
10171;DHT22;5127;50.922;6.988;2023-02-24T04:45:15;9.20;69.50
10171;DHT22;5127;50.922;6.988;2023-02-24T04:47:43;9.20;69.60
10171;DHT22;5127;50.922;6.988;2023-02-24T04:50:15;9.20;69.70
10171;DHT22;5127;50.922;6.988;2023-02-24T04:52:50;9.20;69.60
10171;DHT22;5127;50.922;6.988;2023-02-24T04:55:19;9.30;69.40
10171;DHT22;5127;50.922;6.988;2023-02-24T04:57:47;9.30;69.50
10171;DHT22;5127;50.922;6.988;2023-02-24T05:00:15;9.20;69.20
10171;DHT22;5127;50.922;6.988;2023-02-24T05:02:48;9.20;69.10
10171;DHT22;5127;50.922;6.988;2023-02-24T05:05:16;9.20;69.20
10171;DHT22;5127;50.922;6.988;2023-02-24T05:07:52;9.20;69.30
10171;DHT22;5127;50.922;6.988;2023-02-24T05:10:20;9.20;69.20
10171;DHT22;5127;50.922;6.988;2023-02-24T05:12:52;9.20;69.50
10171;DHT22;5127;50.922;6.988;2023-02-24T05:15:20;9.10;69.50
10171;DHT22;5127;50.922;6.988;2023-02-24T05:17:47;9.10;69.50
10171;DHT22;5127;50.922;6.988;2023-02-24T05:20:16;9.10;69.60
10171;DHT22;5127;50.922;6.988;2023-02-24T05:23:02;9.10;69.60
10171;DHT22;5127;50.922;6.988;2023-02-24T05:25:30;9.10;69.50
10171;DHT22;5127;50.922;6.988;2023-02-24T05:28:02;9.10;69.60
10171;DHT22;5127;50.922;6.988;2023-02-24T05:30:30;9.10;69.60
10171;DHT22;5127;50.922;6.988;2023-02-24T05:32:57;9.00;69.60
10171;DHT22;5127;50.922;6.988;2023-02-24T05:35:25;9.10;69.60
10171;DHT22;5127;50.922;6.988;2023-02-24T05:37:52;9.00;69.50
10171;DHT22;5127;50.922;6.988;2023-02-24T05:40:24;9.00;69.50
10171;DHT22;5127;50.922;6.988;2023-02-24T05:42:51;9.00;69.30
10171;DHT22;5127;50.922;6.988;2023-02-24T05:45:18;9.00;69.40
10171;DHT22;5127;50.922;6.988;2023-02-24T05:47:45;9.00;69.50
10171;DHT22;5127;50.922;6.988;2023-02-24T05:50:13;8.90;69.30
10171;DHT22;5127;50.922;6.988;2023-02-24T05:52:42;8.90;69.30
10171;DHT22;5127;50.922;6.988;2023-02-24T05:55:10;8.90;69.30
10171;DHT22;5127;50.922;6.988;2023-02-24T05:57:40;8.90;69.30
10171;DHT22;5127;50.922;6.988;2023-02-24T06:00:09;8.80;69.20
10171;DHT22;5127;50.922;6.988;2023-02-24T06:02:41;8.80;69.20
10171;DHT22;5127;50.922;6.988;2023-02-24T06:05:16;8.80;69.30
10171;DHT22;5127;50.922;6.988;2023-02-24T06:07:55;8.80;69.30
10171;DHT22;5127;50.922;6.988;2023-02-24T06:10:30;8.80;69.20
10171;DHT22;5127;50.922;6.988;2023-02-24T06:13:00;8.70;69.40
10171;DHT22;5127;50.922;6.988;2023-02-24T06:15:28;8.80;69.40
10171;DHT22;5127;50.922;6.988;2023-02-24T06:17:56;8.80;69.30
10171;DHT22;5127;50.922;6.988;2023-02-24T06:20:27;8.70;69.20
10171;DHT22;5127;50.922;6.988;2023-02-24T06:22:55;8.70;69.10
10171;DHT22;5127;50.922;6.988;2023-02-24T06:25:23;8.70;69.10
10171;DHT22;5127;50.922;6.988;2023-02-24T06:27:52;8.70;69.00
10171;DHT22;5127;50.922;6.988;2023-02-24T06:30:22;8.60;68.70
10171;DHT22;5127;50.922;6.988;2023-02-24T06:32:49;8.60;68.60
10171;DHT22;5127;50.922;6.988;2023-02-24T06:35:18;8.60;68.70
10171;DHT22;5127;50.922;6.988;2023-02-24T06:37:46;8.50;68.70
10171;DHT22;5127;50.922;6.988;2023-02-24T06:40:13;8.50;68.80
10171;DHT22;5127;50.922;6.988;2023-02-24T06:42:46;8.50;68.90
10171;DHT22;5127;50.922;6.988;2023-02-24T06:45:15;8.40;68.80
10171;DHT22;5127;50.922;6.988;2023-02-24T06:47:44;8.40;69.10
10171;DHT22;5127;50.922;6.988;2023-02-24T06:50:14;8.40;69.10
10171;DHT22;5127;50.922;6.988;2023-02-24T06:52:44;8.40;69.30
10171;DHT22;5127;50.922;6.988;2023-02-24T06:55:11;8.40;69.40
10171;DHT22;5127;50.922;6.988;2023-02-24T06:57:51;8.40;69.40
10171;DHT22;5127;50.922;6.988;2023-02-24T07:00:26;8.40;69.30
10171;DHT22;5127;50.922;6.988;2023-02-24T07:03:05;8.40;69.10
10171;DHT22;5127;50.922;6.988;2023-02-24T07:05:42;8.40;69.20
10171;DHT22;5127;50.922;6.988;2023-02-24T07:08:17;8.40;69.40
10171;DHT22;5127;50.922;6.988;2023-02-24T07:10:44;8.50;69.50
10171;DHT22;5127;50.922;6.988;2023-02-24T07:13:17;8.50;69.60
10171;DHT22;5127;50.922;6.988;2023-02-24T07:15:44;8.50;69.50
10171;DHT22;5127;50.922;6.988;2023-02-24T07:18:16;8.60;69.40
10171;DHT22;5127;50.922;6.988;2023-02-24T07:20:44;8.60;69.20
10171;DHT22;5127;50.922;6.988;2023-02-24T07:23:13;8.60;69.20
10171;DHT22;5127;50.922;6.988;2023-02-24T07:25:41;8.70;69.10
10171;DHT22;5127;50.922;6.988;2023-02-24T07:28:11;8.70;69.00
10171;DHT22;5127;50.922;6.988;2023-02-24T07:30:39;8.70;69.00
10171;DHT22;5127;50.922;6.988;2023-02-24T07:33:07;8.80;68.80
10171;DHT22;5127;50.922;6.988;2023-02-24T07:35:36;8.80;68.80
10171;DHT22;5127;50.922;6.988;2023-02-24T07:38:05;8.80;68.30
10171;DHT22;5127;50.922;6.988;2023-02-24T07:40:35;8.80;68.50
10171;DHT22;5127;50.922;6.988;2023-02-24T07:43:05;8.90;68.60
10171;DHT22;5127;50.922;6.988;2023-02-24T07:45:33;8.90;68.60
10171;DHT22;5127;50.922;6.988;2023-02-24T07:48:01;9.00;68.70
10171;DHT22;5127;50.922;6.988;2023-02-24T07:50:28;9.00;69.30
10171;DHT22;5127;50.922;6.988;2023-02-24T07:53:00;9.00;68.60
10171;DHT22;5127;50.922;6.988;2023-02-24T07:55:30;9.00;68.10
10171;DHT22;5127;50.922;6.988;2023-02-24T07:58:00;9.10;68.60
10171;DHT22;5127;50.922;6.988;2023-02-24T08:00:28;9.10;68.60
10171;DHT22;5127;50.922;6.988;2023-02-24T08:02:56;9.10;68.50
10171;DHT22;5127;50.922;6.988;2023-02-24T08:05:25;9.10;68.50
10171;DHT22;5127;50.922;6.988;2023-02-24T08:07:52;9.20;68.60
10171;DHT22;5127;50.922;6.988;2023-02-24T08:10:23;9.20;68.40
10171;DHT22;5127;50.922;6.988;2023-02-24T08:12:51;9.30;68.20
10171;DHT22;5127;50.922;6.988;2023-02-24T08:15:23;9.30;68.40
10171;DHT22;5127;50.922;6.988;2023-02-24T08:17:52;9.30;68.40
10171;DHT22;5127;50.922;6.988;2023-02-24T08:20:20;9.40;68.40
10171;DHT22;5127;50.922;6.988;2023-02-24T08:22:49;9.40;68.40
10171;DHT22;5127;50.922;6.988;2023-02-24T08:25:19;9.40;68.20
10171;DHT22;5127;50.922;6.988;2023-02-24T08:27:50;9.50;68.30
10171;DHT22;5127;50.922;6.988;2023-02-24T08:30:23;9.50;67.90
10171;DHT22;5127;50.922;6.988;2023-02-24T08:32:55;9.50;68.10
10171;DHT22;5127;50.922;6.988;2023-02-24T08:35:27;9.50;67.90
10171;DHT22;5127;50.922;6.988;2023-02-24T08:38:00;9.60;68.00
10171;DHT22;5127;50.922;6.988;2023-02-24T08:40:33;9.60;67.90
10171;DHT22;5127;50.922;6.988;2023-02-24T08:43:22;9.60;68.00
10171;DHT22;5127;50.922;6.988;2023-02-24T08:46:02;9.70;68.00
10171;DHT22;5127;50.922;6.988;2023-02-24T08:48:32;9.70;68.30
10171;DHT22;5127;50.922;6.988;2023-02-24T08:51:06;9.80;68.30
10171;DHT22;5127;50.922;6.988;2023-02-24T08:53:34;9.80;68.00
10171;DHT22;5127;50.922;6.988;2023-02-24T08:56:07;9.90;68.30
10171;DHT22;5127;50.922;6.988;2023-02-24T08:58:42;9.90;68.10
10171;DHT22;5127;50.922;6.988;2023-02-24T09:01:15;9.90;67.70
10171;DHT22;5127;50.922;6.988;2023-02-24T09:03:46;10.00;66.90
10171;DHT22;5127;50.922;6.988;2023-02-24T09:06:15;10.00;67.10
10171;DHT22;5127;50.922;6.988;2023-02-24T09:08:44;10.00;66.90
10171;DHT22;5127;50.922;6.988;2023-02-24T09:11:14;10.10;67.10
10171;DHT22;5127;50.922;6.988;2023-02-24T09:13:44;10.00;66.80
10171;DHT22;5127;50.922;6.988;2023-02-24T09:16:18;10.10;66.70
10171;DHT22;5127;50.922;6.988;2023-02-24T09:18:48;10.10;66.90
10171;DHT22;5127;50.922;6.988;2023-02-24T09:21:36;10.10;67.00
10171;DHT22;5127;50.922;6.988;2023-02-24T09:24:31;10.10;67.00
10171;DHT22;5127;50.922;6.988;2023-02-24T09:26:58;10.10;66.70
10171;DHT22;5127;50.922;6.988;2023-02-24T09:29:27;10.20;67.00
10171;DHT22;5127;50.922;6.988;2023-02-24T09:32:01;10.10;66.60
10171;DHT22;5127;50.922;6.988;2023-02-24T09:34:32;10.20;66.80
10171;DHT22;5127;50.922;6.988;2023-02-24T09:37:00;10.20;66.70
10171;DHT22;5127;50.922;6.988;2023-02-24T09:39:31;10.10;66.60
10171;DHT22;5127;50.922;6.988;2023-02-24T09:42:21;10.20;66.40
10171;DHT22;5127;50.922;6.988;2023-02-24T09:45:04;10.10;66.20
10171;DHT22;5127;50.922;6.988;2023-02-24T09:47:39;10.10;65.70
10171;DHT22;5127;50.922;6.988;2023-02-24T09:50:28;10.20;66.20
10171;DHT22;5127;50.922;6.988;2023-02-24T09:53:13;10.20;66.10
10171;DHT22;5127;50.922;6.988;2023-02-24T09:55:49;10.20;66.80
10171;DHT22;5127;50.922;6.988;2023-02-24T09:58:35;10.30;66.30
10171;DHT22;5127;50.922;6.988;2023-02-24T10:01:12;10.40;66.20
10171;DHT22;5127;50.922;6.988;2023-02-24T10:03:52;10.40;66.10
10171;DHT22;5127;50.922;6.988;2023-02-24T10:06:32;10.40;66.00
10171;DHT22;5127;50.922;6.988;2023-02-24T10:09:06;10.50;66.30
10171;DHT22;5127;50.922;6.988;2023-02-24T10:11:39;10.50;65.90
10171;DHT22;5127;50.922;6.988;2023-02-24T10:14:24;10.50;65.60
10171;DHT22;5127;50.922;6.988;2023-02-24T10:16:56;10.60;65.50
10171;DHT22;5127;50.922;6.988;2023-02-24T10:19:43;10.50;65.50
10171;DHT22;5127;50.922;6.988;2023-02-24T10:22:17;10.60;66.10
10171;DHT22;5127;50.922;6.988;2023-02-24T10:24:59;10.60;65.20
10171;DHT22;5127;50.922;6.988;2023-02-24T10:27:42;10.60;65.10
10171;DHT22;5127;50.922;6.988;2023-02-24T10:30:29;10.60;65.00
10171;DHT22;5127;50.922;6.988;2023-02-24T10:33:19;10.60;64.40
10171;DHT22;5127;50.922;6.988;2023-02-24T10:35:51;10.60;64.60
10171;DHT22;5127;50.922;6.988;2023-02-24T10:38:20;10.60;65.80
10171;DHT22;5127;50.922;6.988;2023-02-24T10:40:51;10.70;65.80
10171;DHT22;5127;50.922;6.988;2023-02-24T10:43:23;10.70;65.40
10171;DHT22;5127;50.922;6.988;2023-02-24T10:45:58;10.70;65.50
10171;DHT22;5127;50.922;6.988;2023-02-24T10:48:33;10.70;65.30
10171;DHT22;5127;50.922;6.988;2023-02-24T10:51:12;10.70;65.00
10171;DHT22;5127;50.922;6.988;2023-02-24T10:53:46;10.70;64.30
10171;DHT22;5127;50.922;6.988;2023-02-24T10:56:19;10.70;64.70
10171;DHT22;5127;50.922;6.988;2023-02-24T10:59:02;10.70;64.50
10171;DHT22;5127;50.922;6.988;2023-02-24T11:01:51;10.60;63.40
10171;DHT22;5127;50.922;6.988;2023-02-24T11:04:31;10.60;64.10
10171;DHT22;5127;50.922;6.988;2023-02-24T11:07:12;10.50;63.50
10171;DHT22;5127;50.922;6.988;2023-02-24T11:10:02;10.50;64.30
10171;DHT22;5127;50.922;6.988;2023-02-24T11:12:37;10.40;63.50
10171;DHT22;5127;50.922;6.988;2023-02-24T11:15:31;10.40;64.60
10171;DHT22;5127;50.922;6.988;2023-02-24T11:18:19;10.40;64.40
10171;DHT22;5127;50.922;6.988;2023-02-24T11:20:51;10.40;64.40
10171;DHT22;5127;50.922;6.988;2023-02-24T11:23:23;10.30;63.70
10171;DHT22;5127;50.922;6.988;2023-02-24T11:25:55;10.30;63.80
10171;DHT22;5127;50.922;6.988;2023-02-24T11:28:39;10.30;64.20
10171;DHT22;5127;50.922;6.988;2023-02-24T11:31:18;10.20;63.20
10171;DHT22;5127;50.922;6.988;2023-02-24T11:33:54;10.20;63.30
10171;DHT22;5127;50.922;6.988;2023-02-24T11:36:32;10.20;63.50
10171;DHT22;5127;50.922;6.988;2023-02-24T11:39:12;10.20;63.80
10171;DHT22;5127;50.922;6.988;2023-02-24T11:41:50;10.10;63.70
10171;DHT22;5127;50.922;6.988;2023-02-24T11:44:21;10.10;64.10
10171;DHT22;5127;50.922;6.988;2023-02-24T11:46:52;10.10;64.60
10171;DHT22;5127;50.922;6.988;2023-02-24T11:49:27;10.00;64.30
10171;DHT22;5127;50.922;6.988;2023-02-24T11:51:59;10.00;63.80
10171;DHT22;5127;50.922;6.988;2023-02-24T11:54:34;9.90;64.70
10171;DHT22;5127;50.922;6.988;2023-02-24T11:57:04;9.90;65.00
10171;DHT22;5127;50.922;6.988;2023-02-24T11:59:39;9.80;65.20
10171;DHT22;5127;50.922;6.988;2023-02-24T12:02:14;9.80;65.10
10171;DHT22;5127;50.922;6.988;2023-02-24T12:04:50;9.70;64.80
10171;DHT22;5127;50.922;6.988;2023-02-24T12:07:28;9.60;64.80
10171;DHT22;5127;50.922;6.988;2023-02-24T12:10:01;9.60;64.90
10171;DHT22;5127;50.922;6.988;2023-02-24T12:12:36;9.50;65.30
10171;DHT22;5127;50.922;6.988;2023-02-24T12:15:15;9.50;65.10
10171;DHT22;5127;50.922;6.988;2023-02-24T12:17:53;9.50;65.10
10171;DHT22;5127;50.922;6.988;2023-02-24T12:20:27;9.40;65.20
10171;DHT22;5127;50.922;6.988;2023-02-24T12:23:01;9.40;65.60
10171;DHT22;5127;50.922;6.988;2023-02-24T12:25:36;9.40;65.70
10171;DHT22;5127;50.922;6.988;2023-02-24T12:28:15;9.30;65.90
10171;DHT22;5127;50.922;6.988;2023-02-24T12:30:58;9.30;65.80
10171;DHT22;5127;50.922;6.988;2023-02-24T12:33:45;9.30;65.90
10171;DHT22;5127;50.922;6.988;2023-02-24T12:36:23;9.30;65.60
10171;DHT22;5127;50.922;6.988;2023-02-24T12:39:02;9.30;66.20
10171;DHT22;5127;50.922;6.988;2023-02-24T12:41:56;9.30;66.20
10171;DHT22;5127;50.922;6.988;2023-02-24T12:44:34;9.30;66.10
10171;DHT22;5127;50.922;6.988;2023-02-24T12:47:09;9.30;66.70
10171;DHT22;5127;50.922;6.988;2023-02-24T12:49:54;9.30;67.70
10171;DHT22;5127;50.922;6.988;2023-02-24T12:52:27;9.40;66.80
10171;DHT22;5127;50.922;6.988;2023-02-24T12:55:10;9.40;67.00
10171;DHT22;5127;50.922;6.988;2023-02-24T12:57:45;9.40;66.60
10171;DHT22;5127;50.922;6.988;2023-02-24T13:00:20;9.40;67.10
10171;DHT22;5127;50.922;6.988;2023-02-24T13:02:55;9.50;67.30
10171;DHT22;5127;50.922;6.988;2023-02-24T13:05:30;9.50;67.00
10171;DHT22;5127;50.922;6.988;2023-02-24T13:08:11;9.50;67.10
10171;DHT22;5127;50.922;6.988;2023-02-24T13:10:45;9.40;66.60
10171;DHT22;5127;50.922;6.988;2023-02-24T13:13:19;9.40;66.70
10171;DHT22;5127;50.922;6.988;2023-02-24T13:15:50;9.30;67.00
10171;DHT22;5127;50.922;6.988;2023-02-24T13:18:26;9.30;67.30
10171;DHT22;5127;50.922;6.988;2023-02-24T13:21:02;9.20;67.00
10171;DHT22;5127;50.922;6.988;2023-02-24T13:23:30;9.20;66.90
10171;DHT22;5127;50.922;6.988;2023-02-24T13:25:59;9.10;67.60
10171;DHT22;5127;50.922;6.988;2023-02-24T13:28:28;9.10;67.60
10171;DHT22;5127;50.922;6.988;2023-02-24T13:31:00;9.10;67.70
10171;DHT22;5127;50.922;6.988;2023-02-24T13:33:31;9.00;67.90
10171;DHT22;5127;50.922;6.988;2023-02-24T13:36:10;9.00;68.00
10171;DHT22;5127;50.922;6.988;2023-02-24T13:38:39;8.90;67.70
10171;DHT22;5127;50.922;6.988;2023-02-24T13:41:31;8.90;68.20
10171;DHT22;5127;50.922;6.988;2023-02-24T13:44:01;8.90;67.80
10171;DHT22;5127;50.922;6.988;2023-02-24T13:46:32;8.90;68.50
10171;DHT22;5127;50.922;6.988;2023-02-24T13:49:24;8.90;68.60
10171;DHT22;5127;50.922;6.988;2023-02-24T13:51:59;8.90;68.10
10171;DHT22;5127;50.922;6.988;2023-02-24T13:54:48;8.80;68.80
10171;DHT22;5127;50.922;6.988;2023-02-24T13:57:44;8.90;68.50
10171;DHT22;5127;50.922;6.988;2023-02-24T14:00:21;8.90;68.60
10171;DHT22;5127;50.922;6.988;2023-02-24T14:02:52;8.90;69.30
10171;DHT22;5127;50.922;6.988;2023-02-24T14:05:22;8.90;69.30
10171;DHT22;5127;50.922;6.988;2023-02-24T14:07:51;8.90;69.20
10171;DHT22;5127;50.922;6.988;2023-02-24T14:10:21;8.90;69.40
10171;DHT22;5127;50.922;6.988;2023-02-24T14:13:02;8.90;69.30
10171;DHT22;5127;50.922;6.988;2023-02-24T14:15:30;8.90;69.10
10171;DHT22;5127;50.922;6.988;2023-02-24T14:18:00;8.90;69.50
10171;DHT22;5127;50.922;6.988;2023-02-24T14:20:30;8.90;69.80
10171;DHT22;5127;50.922;6.988;2023-02-24T14:22:59;8.90;69.80
10171;DHT22;5127;50.922;6.988;2023-02-24T14:25:29;8.80;69.80
10171;DHT22;5127;50.922;6.988;2023-02-24T14:28:01;8.90;69.70
10171;DHT22;5127;50.922;6.988;2023-02-24T14:30:33;8.90;69.70
10171;DHT22;5127;50.922;6.988;2023-02-24T14:33:01;8.90;69.70
10171;DHT22;5127;50.922;6.988;2023-02-24T14:35:35;8.90;69.90
10171;DHT22;5127;50.922;6.988;2023-02-24T14:38:03;8.90;69.90
10171;DHT22;5127;50.922;6.988;2023-02-24T14:40:31;8.90;70.10
10171;DHT22;5127;50.922;6.988;2023-02-24T14:42:58;8.90;70.00
10171;DHT22;5127;50.922;6.988;2023-02-24T14:45:28;8.80;69.90
10171;DHT22;5127;50.922;6.988;2023-02-24T14:47:55;8.80;70.00
10171;DHT22;5127;50.922;6.988;2023-02-24T14:50:25;8.80;70.10
10171;DHT22;5127;50.922;6.988;2023-02-24T14:52:57;8.80;70.00
10171;DHT22;5127;50.922;6.988;2023-02-24T14:55:31;8.90;70.00
10171;DHT22;5127;50.922;6.988;2023-02-24T14:58:02;8.80;70.00
10171;DHT22;5127;50.922;6.988;2023-02-24T15:00:36;8.80;70.00
10171;DHT22;5127;50.922;6.988;2023-02-24T15:03:08;8.80;70.10
10171;DHT22;5127;50.922;6.988;2023-02-24T15:05:39;8.80;70.20
10171;DHT22;5127;50.922;6.988;2023-02-24T15:08:21;8.70;70.10
10171;DHT22;5127;50.922;6.988;2023-02-24T15:10:50;8.70;69.90
10171;DHT22;5127;50.922;6.988;2023-02-24T15:13:22;8.70;70.40
10171;DHT22;5127;50.922;6.988;2023-02-24T15:15:54;8.70;70.40
10171;DHT22;5127;50.922;6.988;2023-02-24T15:18:24;8.70;70.50
10171;DHT22;5127;50.922;6.988;2023-02-24T15:21:00;8.70;70.60
10171;DHT22;5127;50.922;6.988;2023-02-24T15:23:30;8.70;70.40
10171;DHT22;5127;50.922;6.988;2023-02-24T15:25:58;8.70;70.80
10171;DHT22;5127;50.922;6.988;2023-02-24T15:28:27;8.70;70.80
10171;DHT22;5127;50.922;6.988;2023-02-24T15:31:03;8.80;70.90
10171;DHT22;5127;50.922;6.988;2023-02-24T15:33:35;8.80;70.60
10171;DHT22;5127;50.922;6.988;2023-02-24T15:36:07;8.80;70.80
10171;DHT22;5127;50.922;6.988;2023-02-24T15:38:37;8.80;70.80
10171;DHT22;5127;50.922;6.988;2023-02-24T15:41:07;8.80;70.80
10171;DHT22;5127;50.922;6.988;2023-02-24T15:43:36;8.70;70.80
10171;DHT22;5127;50.922;6.988;2023-02-24T15:46:23;8.80;70.90
10171;DHT22;5127;50.922;6.988;2023-02-24T15:48:52;8.80;70.50
10171;DHT22;5127;50.922;6.988;2023-02-24T15:51:31;8.70;71.10
10171;DHT22;5127;50.922;6.988;2023-02-24T15:54:01;8.70;70.70
10171;DHT22;5127;50.922;6.988;2023-02-24T15:56:31;8.70;71.00
10171;DHT22;5127;50.922;6.988;2023-02-24T15:58:59;8.70;71.00
10171;DHT22;5127;50.922;6.988;2023-02-24T16:01:29;8.70;71.10
10171;DHT22;5127;50.922;6.988;2023-02-24T16:03:57;8.70;71.70
10171;DHT22;5127;50.922;6.988;2023-02-24T16:06:25;8.70;71.40
10171;DHT22;5127;50.922;6.988;2023-02-24T16:08:54;8.70;71.20
10171;DHT22;5127;50.922;6.988;2023-02-24T16:11:25;8.70;71.20
10171;DHT22;5127;50.922;6.988;2023-02-24T16:13:56;8.70;71.10
10171;DHT22;5127;50.922;6.988;2023-02-24T16:16:24;8.70;71.10
10171;DHT22;5127;50.922;6.988;2023-02-24T16:18:53;8.70;71.30
10171;DHT22;5127;50.922;6.988;2023-02-24T16:21:21;8.70;71.20
10171;DHT22;5127;50.922;6.988;2023-02-24T16:23:48;8.70;71.30
10171;DHT22;5127;50.922;6.988;2023-02-24T16:26:18;8.70;71.30
10171;DHT22;5127;50.922;6.988;2023-02-24T16:28:49;8.70;71.30
10171;DHT22;5127;50.922;6.988;2023-02-24T16:31:17;8.70;71.30
10171;DHT22;5127;50.922;6.988;2023-02-24T16:33:44;8.70;71.40
10171;DHT22;5127;50.922;6.988;2023-02-24T16:36:13;8.70;71.40